createdAt,value
2022-10-02T00:14:36.138Z,964.12
2022-10-02T00:29:37.988Z,964.03
2022-10-02T00:44:39.808Z,963.99
2022-10-02T00:59:41.629Z,963.99
2022-10-02T01:14:43.484Z,964.01
2022-10-02T01:29:45.319Z,964.06
2022-10-02T01:44:47.161Z,964.11
2022-10-02T01:59:48.996Z,964.29
2022-10-02T02:14:50.817Z,964.38
2022-10-02T02:29:52.667Z,964.44
2022-10-02T02:44:54.531Z,964.51
2022-10-02T02:59:56.358Z,964.58
2022-10-02T03:14:58.201Z,964.65
2022-10-02T03:30:00.028Z,964.7
2022-10-02T03:45:01.858Z,964.64
2022-10-02T04:00:03.704Z,964.67
2022-10-02T04:15:05.565Z,964.74
2022-10-02T04:30:07.397Z,964.9
2022-10-02T04:45:09.208Z,964.94
2022-10-02T05:00:11.056Z,964.99
2022-10-02T05:15:12.888Z,965.06
2022-10-02T05:30:14.733Z,965.06
2022-10-02T05:45:16.581Z,965.12
2022-10-02T06:00:18.425Z,965.13
2022-10-02T06:15:20.259Z,965.25
2022-10-02T06:30:22.114Z,965.35
2022-10-02T06:45:24.021Z,965.34
2022-10-02T07:00:25.856Z,965.42
2022-10-02T07:15:27.692Z,965.44
2022-10-02T07:30:29.526Z,965.49
2022-10-02T07:45:31.403Z,965.4
2022-10-02T08:00:33.299Z,965.43
2022-10-02T08:15:35.112Z,965.41
2022-10-02T08:30:36.922Z,965.44
2022-10-02T08:45:38.871Z,965.52
2022-10-02T09:00:40.823Z,965.56
2022-10-02T09:15:42.719Z,965.55
2022-10-02T09:30:44.581Z,965.61
2022-10-02T09:45:46.424Z,965.7
2022-10-02T10:00:48.340Z,965.69
2022-10-02T10:15:50.234Z,965.67
2022-10-02T10:30:52.076Z,965.68
2022-10-02T10:45:53.968Z,965.63
2022-10-02T11:00:55.929Z,965.7
2022-10-02T11:15:57.778Z,965.72
2022-10-02T11:30:59.605Z,965.74
2022-10-02T11:46:01.574Z,965.74
2022-10-02T12:01:03.437Z,965.69
2022-10-02T12:16:05.317Z,965.65
2022-10-02T12:31:07.207Z,965.64
2022-10-02T12:46:09.076Z,965.69
2022-10-02T13:01:10.994Z,965.88
2022-10-02T13:16:12.922Z,965.96
2022-10-02T13:31:14.817Z,965.98
2022-10-02T13:46:16.735Z,966.02
2022-10-02T14:01:18.709Z,966.21
2022-10-02T14:16:20.686Z,966.32
2022-10-02T14:31:22.620Z,966.51
2022-10-02T14:46:24.511Z,966.63
2022-10-02T15:01:26.410Z,966.86
2022-10-02T15:16:28.352Z,966.92
2022-10-02T15:31:30.319Z,966.94
2022-10-02T15:46:32.185Z,966.96
2022-10-02T16:01:34.238Z,967.01
2022-10-02T16:16:36.554Z,967.08
2022-10-02T16:31:38.620Z,966.97
2022-10-02T16:46:40.745Z,966.86
2022-10-02T17:01:59.028Z,966.64
2022-10-02T17:17:14.820Z,966.46
2022-10-02T17:32:16.643Z,966.34
2022-10-02T17:47:18.492Z,966.18
2022-10-02T18:02:20.441Z,966.01
2022-10-02T18:17:22.316Z,965.8
2022-10-02T18:32:24.231Z,965.6
2022-10-02T18:47:26.140Z,965.3
2022-10-02T19:02:28.011Z,965.14
2022-10-02T19:17:29.879Z,964.97
2022-10-02T19:32:31.719Z,964.83
2022-10-02T19:47:33.563Z,964.75
2022-10-02T20:02:35.483Z,964.5
2022-10-02T20:17:37.377Z,964.32
2022-10-02T20:32:39.214Z,964.08
2022-10-02T20:47:41.075Z,963.91
2022-10-02T21:02:42.910Z,963.67
2022-10-02T21:17:44.747Z,963.55
2022-10-02T21:32:46.603Z,963.34
2022-10-02T21:47:48.442Z,963.18
2022-10-02T22:02:50.295Z,963.05
2022-10-02T22:17:52.155Z,962.95
2022-10-02T22:32:53.981Z,962.89
2022-10-02T22:47:55.796Z,962.85
2022-10-02T23:02:57.709Z,962.78
2022-10-02T23:17:59.619Z,962.86
2022-10-02T23:33:01.449Z,962.93
2022-10-02T23:48:03.310Z,962.96
